Time;durP1;ratioP1;P1;durP2;ratioP2;P2;SDS_P1;SDS_P2;PMS_P1;PMS_P2;Temp;Humidity;BMP_temperature;BMP_pressure;BME280_temperature;BME280_humidity;BME280_pressure;Samples;Min_cycle;Max_cycle;Signal;HPM_P1;HPM_P2
2019/06/30 00:01:57;;;;;;;2.74;2.41;;;;;;;23.43;56.56;100423.11;;;;-52
2019/06/30 00:04:57;;;;;;;2.48;2.28;;;;;;;23.43;56.54;100426.31;;;;-52
2019/06/30 00:07:57;;;;;;;2.78;2.43;;;;;;;23.43;56.54;100424.53;;;;-52
2019/06/30 00:10:57;;;;;;;3.03;2.40;;;;;;;23.42;56.52;100425.01;;;;-52
2019/06/30 00:13:57;;;;;;;2.95;2.37;;;;;;;23.41;56.56;100423.22;;;;-53
2019/06/30 00:16:57;;;;;;;2.73;2.37;;;;;;;23.41;56.53;100421.03;;;;-52
2019/06/30 00:19:57;;;;;;;2.57;2.33;;;;;;;23.41;56.57;100416.72;;;;-52
2019/06/30 00:22:57;;;;;;;2.62;2.40;;;;;;;23.41;56.57;100420.26;;;;-52
2019/06/30 00:25:57;;;;;;;2.56;2.36;;;;;;;23.40;56.54;100414.94;;;;-52
2019/06/30 00:28:57;;;;;;;2.69;2.27;;;;;;;23.39;56.54;100411.88;;;;-52
2019/06/30 00:31:57;;;;;;;2.48;2.28;;;;;;;23.40;56.57;100413.86;;;;-52
2019/06/30 00:34:57;;;;;;;3.17;2.58;;;;;;;23.40;56.54;100407.77;;;;-52
2019/06/30 00:37:57;;;;;;;2.57;2.37;;;;;;;23.39;56.56;100407.50;;;;-52
2019/06/30 00:40:57;;;;;;;2.59;2.35;;;;;;;23.39;56.60;100404.20;;;;-52
2019/06/30 00:43:57;;;;;;;2.60;2.40;;;;;;;23.39;56.57;100399.64;;;;-52
2019/06/30 00:46:57;;;;;;;2.49;2.29;;;;;;;23.38;56.58;100395.33;;;;-52
2019/06/30 00:49:59;;;;;;;2.57;2.37;;;;;;;23.38;56.59;100396.17;;;;-52
2019/06/30 00:52:57;;;;;;;2.40;2.20;;;;;;;23.37;56.59;100394.45;;;;-52
2019/06/30 00:55:57;;;;;;;2.57;2.37;;;;;;;23.37;56.57;100388.56;;;;-52
2019/06/30 00:58:57;;;;;;;2.70;2.49;;;;;;;23.37;56.59;100383.77;;;;-52
2019/06/30 01:01:57;;;;;;;3.21;2.36;;;;;;;23.37;56.55;100388.06;;;;-52
2019/06/30 01:04:57;;;;;;;2.80;2.31;;;;;;;23.37;56.60;100389.75;;;;-52
2019/06/30 01:07:57;;;;;;;2.61;2.31;;;;;;;23.37;56.57;100388.47;;;;-52
2019/06/30 01:10:57;;;;;;;2.71;2.51;;;;;;;23.36;56.57;100388.88;;;;-52
2019/06/30 01:13:57;;;;;;;3.20;2.43;;;;;;;23.36;56.63;100390.83;;;;-52
2019/06/30 01:16:57;;;;;;;2.67;2.47;;;;;;;23.36;56.59;100386.45;;;;-56
2019/06/30 01:19:57;;;;;;;2.50;2.30;;;;;;;23.35;56.60;100388.17;;;;-56
2019/06/30 01:22:57;;;;;;;2.61;2.41;;;;;;;23.35;56.54;100381.94;;;;-56
2019/06/30 01:25:57;;;;;;;4.04;2.44;;;;;;;23.35;56.54;100376.64;;;;-55
2019/06/30 01:28:57;;;;;;;2.48;2.23;;;;;;;23.35;56.58;100374.19;;;;-55
2019/06/30 01:31:57;;;;;;;2.59;2.39;;;;;;;23.34;56.55;100373.92;;;;-55
2019/06/30 01:34:57;;;;;;;2.60;2.40;;;;;;;23.34;56.62;100371.45;;;;-56
2019/06/30 01:37:57;;;;;;;2.62;2.39;;;;;;;23.34;56.63;100369.27;;;;-56
2019/06/30 01:40:56;;;;;;;2.61;2.41;;;;;;;23.34;56.57;100368.77;;;;-56
2019/06/30 01:43:56;;;;;;;2.92;2.50;;;;;;;23.34;56.57;100367.99;;;;-56
2019/06/30 01:46:56;;;;;;;2.84;2.40;;;;;;;23.33;56.64;100371.46;;;;-56
2019/06/30 01:49:57;;;;;;;2.83;2.57;;;;;;;23.33;56.60;100371.09;;;;-56
2019/06/30 01:52:56;;;;;;;2.67;2.37;;;;;;;23.33;56.58;100369.14;;;;-56
2019/06/30 01:55:57;;;;;;;2.88;2.41;;;;;;;23.33;56.58;100367.62;;;;-55
2019/06/30 01:58:57;;;;;;;2.50;2.30;;;;;;;23.32;56.58;100363.34;;;;-56
2019/06/30 02:01:57;;;;;;;2.81;2.41;;;;;;;23.32;56.65;100362.47;;;;-55
2019/06/30 02:04:57;;;;;;;2.71;2.50;;;;;;;23.31;56.69;100354.39;;;;-55
2019/06/30 02:07:57;;;;;;;4.53;2.52;;;;;;;23.31;56.64;100355.91;;;;-57
2019/06/30 02:10:57;;;;;;;2.53;2.33;;;;;;;23.32;56.65;100352.36;;;;-56
2019/06/30 02:13:57;;;;;;;2.64;2.40;;;;;;;23.32;56.65;100352.36;;;;-55
2019/06/30 02:16:56;;;;;;;3.16;2.54;;;;;;;23.32;56.60;100354.55;;;;-56
2019/06/30 02:19:57;;;;;;;2.62;2.42;;;;;;;23.31;56.65;100355.91;;;;-55
2019/06/30 02:22:56;;;;;;;2.71;2.31;;;;;;;23.31;56.63;100359.82;;;;-55
2019/06/30 02:25:56;;;;;;;2.73;2.52;;;;;;;23.31;56.63;100359.82;;;;-56
2019/06/30 02:28:57;;;;;;;2.56;2.36;;;;;;;23.30;56.67;100361.61;;;;-56
2019/06/30 02:31:57;;;;;;;2.80;2.60;;;;;;;23.30;56.67;100362.11;;;;-55
2019/06/30 02:34:56;;;;;;;2.67;2.47;;;;;;;23.30;56.69;100365.82;;;;-55
2019/06/30 02:37:57;;;;;;;2.68;2.48;;;;;;;23.30;56.68;100366.05;;;;-56
2019/06/30 02:40:57;;;;;;;2.51;2.31;;;;;;;23.29;56.66;100362.25;;;;-56
2019/06/30 02:43:57;;;;;;;2.69;2.49;;;;;;;23.30;56.68;100372.09;;;;-56
2019/06/30 02:46:57;;;;;;;2.86;2.53;;;;;;;23.29;56.68;100369.40;;;;-56
2019/06/30 02:49:57;;;;;;;2.57;2.37;;;;;;;23.29;56.69;100372.03;;;;-56
2019/06/30 02:52:56;;;;;;;2.50;2.30;;;;;;;23.29;56.69;100375.30;;;;-56
2019/06/30 02:55:56;;;;;;;3.81;2.59;;;;;;;23.29;56.69;100381.03;;;;-55
2019/06/30 02:58:57;;;;;;;2.60;2.40;;;;;;;23.29;56.66;100377.59;;;;-55
2019/06/30 03:01:57;;;;;;;2.95;2.45;;;;;;;23.29;56.74;100370.38;;;;-55
2019/06/30 03:04:57;;;;;;;2.54;2.34;;;;;;;23.29;56.69;100372.50;;;;-56
2019/06/30 03:07:57;;;;;;;2.81;2.61;;;;;;;23.28;56.71;100366.51;;;;-56
2019/06/30 03:10:57;;;;;;;2.51;2.31;;;;;;;23.28;56.69;100363.98;;;;-56
2019/06/30 03:13:56;;;;;;;2.61;2.41;;;;;;;23.28;56.71;100363.48;;;;-55
2019/06/30 03:16:57;;;;;;;2.74;2.54;;;;;;;23.28;56.70;100364.22;;;;-55
2019/06/30 03:19:57;;;;;;;2.61;2.41;;;;;;;23.27;56.70;100364.97;;;;-55
2019/06/30 03:22:57;;;;;;;2.56;2.36;;;;;;;23.28;56.72;100365.06;;;;-56
2019/06/30 03:25:57;;;;;;;2.59;2.39;;;;;;;23.28;56.71;100369.44;;;;-55
2019/06/30 03:28:57;;;;;;;2.59;2.39;;;;;;;23.27;56.75;100376.25;;;;-55
2019/06/30 03:31:57;;;;;;;2.63;2.43;;;;;;;23.27;56.71;100380.44;;;;-56
2019/06/30 03:34:56;;;;;;;3.05;2.60;;;;;;;23.27;56.73;100385.36;;;;-56
2019/06/30 03:37:56;;;;;;;2.72;2.52;;;;;;;23.27;56.74;100391.05;;;;-55
2019/06/30 03:40:57;;;;;;;2.81;2.57;;;;;;;23.27;56.71;100390.81;;;;-56
2019/06/30 03:43:56;;;;;;;2.53;2.33;;;;;;;23.27;56.73;100395.77;;;;-55
2019/06/30 03:46:57;;;;;;;3.13;2.44;;;;;;;23.26;56.70;100396.78;;;;-56
2019/06/30 03:49:57;;;;;;;2.91;2.64;;;;;;;23.26;56.72;100397.63;;;;-55
2019/06/30 03:52:56;;;;;;;2.59;2.39;;;;;;;23.27;56.70;100396.55;;;;-56
2019/06/30 03:55:57;;;;;;;2.67;2.47;;;;;;;23.25;56.70;100393.28;;;;-56
2019/06/30 03:58:57;;;;;;;2.61;2.41;;;;;;;23.26;56.70;100395.51;;;;-55
2019/06/30 04:01:57;;;;;;;2.80;2.50;;;;;;;23.25;56.70;100396.25;;;;-56
2019/06/30 04:04:57;;;;;;;2.73;2.53;;;;;;;23.26;56.73;100396.62;;;;-56
2019/06/30 04:07:56;;;;;;;2.63;2.43;;;;;;;23.26;56.71;100403.59;;;;-55
2019/06/30 04:10:56;;;;;;;2.59;2.39;;;;;;;23.25;56.71;100407.03;;;;-55
2019/06/30 04:13:56;;;;;;;2.67;2.47;;;;;;;23.26;56.75;100406.13;;;;-55
2019/06/30 04:16:57;;;;;;;2.75;2.55;;;;;;;23.24;56.70;100403.30;;;;-55
2019/06/30 04:19:57;;;;;;;2.57;2.37;;;;;;;23.24;56.73;100407.41;;;;-55
2019/06/30 04:22:57;;;;;;;2.69;2.49;;;;;;;23.24;56.75;100412.56;;;;-56
2019/06/30 04:25:56;;;;;;;2.60;2.40;;;;;;;23.24;56.69;100413.98;;;;-55
2019/06/30 04:28:56;;;;;;;2.71;2.51;;;;;;;23.24;56.71;100418.03;;;;-55
2019/06/30 04:31:57;;;;;;;3.07;2.77;;;;;;;23.24;56.75;100422.92;;;;-55
2019/06/30 04:34:57;;;;;;;2.71;2.51;;;;;;;23.24;56.71;100426.45;;;;-55
2019/06/30 04:37:57;;;;;;;2.71;2.51;;;;;;;23.24;56.74;100427.56;;;;-56
2019/06/30 04:40:56;;;;;;;2.70;2.50;;;;;;;23.23;56.75;100435.28;;;;-56
2019/06/30 04:43:57;;;;;;;2.79;2.59;;;;;;;23.23;56.71;100436.36;;;;-55
2019/06/30 04:46:56;;;;;;;2.53;2.33;;;;;;;23.23;56.76;100437.81;;;;-56
2019/06/30 04:49:56;;;;;;;2.82;2.62;;;;;;;23.23;56.74;100436.70;;;;-56
2019/06/30 04:52:57;;;;;;;2.71;2.51;;;;;;;23.23;56.78;100437.04;;;;-56
2019/06/30 04:55:57;;;;;;;2.64;2.44;;;;;;;23.23;56.78;100440.00;;;;-55
2019/06/30 04:58:56;;;;;;;2.97;2.77;;;;;;;23.22;56.75;100441.83;;;;-56
2019/06/30 05:01:57;;;;;;;2.69;2.49;;;;;;;23.23;56.76;100442.70;;;;-56
2019/06/30 05:04:56;;;;;;;2.80;2.60;;;;;;;23.22;56.77;100443.01;;;;-56
2019/06/30 05:07:56;;;;;;;2.63;2.43;;;;;;;23.23;56.75;100445.97;;;;-55
2019/06/30 05:10:56;;;;;;;6.45;2.51;;;;;;;23.22;56.79;100447.05;;;;-53
2019/06/30 05:13:56;;;;;;;8.23;2.93;;;;;;;23.22;56.45;100444.86;;;;-53
2019/06/30 05:16:56;;;;;;;4.82;2.89;;;;;;;23.21;56.12;100447.02;;;;-53
2019/06/30 05:19:57;;;;;;;4.71;3.30;;;;;;;23.20;55.48;100447.06;;;;-53
2019/06/30 05:22:56;;;;;;;4.48;3.29;;;;;;;23.18;55.18;100443.57;;;;-53
2019/06/30 05:25:56;;;;;;;5.75;3.80;;;;;;;23.17;54.63;100444.28;;;;-53
2019/06/30 05:28:56;;;;;;;4.37;3.93;;;;;;;23.16;54.35;100444.86;;;;-54
2019/06/30 05:31:56;;;;;;;5.07;3.86;;;;;;;23.16;53.96;100448.05;;;;-53
2019/06/30 05:34:57;;;;;;;4.27;3.85;;;;;;;23.18;53.59;100442.28;;;;-54
2019/06/30 05:37:57;;;;;;;4.69;3.92;;;;;;;23.19;53.17;100447.30;;;;-53
2019/06/30 05:40:56;;;;;;;4.67;4.02;;;;;;;23.17;53.70;100448.36;;;;-54
2019/06/30 05:43:57;;;;;;;4.54;4.14;;;;;;;23.18;53.78;100447.17;;;;-51
2019/06/30 05:46:56;;;;;;;4.57;3.95;;;;;;;23.17;53.47;100443.13;;;;-51
2019/06/30 05:49:57;;;;;;;5.17;3.96;;;;;;;23.17;53.10;100445.46;;;;-51
2019/06/30 05:52:56;;;;;;;4.65;4.13;;;;;;;23.17;53.47;100448.42;;;;-50
2019/06/30 05:55:56;;;;;;;6.13;4.45;;;;;;;23.20;52.51;100453.30;;;;-51
2019/06/30 05:58:57;;;;;;;4.84;4.43;;;;;;;23.20;52.81;100454.14;;;;-51
2019/06/30 06:01:56;;;;;;;5.21;4.71;;;;;;;23.22;52.17;100455.14;;;;-51
2019/06/30 06:04:57;;;;;;;4.71;4.31;;;;;;;23.20;52.90;100453.13;;;;-50
2019/06/30 06:07:56;;;;;;;5.11;4.24;;;;;;;23.20;52.63;100448.25;;;;-51
2019/06/30 06:10:57;;;;;;;6.11;4.50;;;;;;;23.18;52.82;100449.47;;;;-51
2019/06/30 06:13:56;;;;;;;5.11;4.69;;;;;;;23.19;52.65;100452.36;;;;-51
2019/06/30 06:16:57;;;;;;;5.82;4.45;;;;;;;23.19;53.28;100454.72;;;;-52
2019/06/30 06:19:56;;;;;;;5.59;4.55;;;;;;;23.19;53.57;100453.38;;;;-51
2019/06/30 06:22:56;;;;;;;5.61;4.59;;;;;;;23.20;53.66;100459.03;;;;-52
2019/06/30 06:25:56;;;;;;;6.63;4.44;;;;;;;23.19;54.00;100468.70;;;;-52
2019/06/30 06:28:57;;;;;;;5.59;4.48;;;;;;;23.19;54.09;100476.35;;;;-51
2019/06/30 06:31:56;;;;;;;5.01;4.49;;;;;;;23.18;54.38;100472.72;;;;-51
2019/06/30 06:34:57;;;;;;;5.06;4.34;;;;;;;23.18;54.37;100474.40;;;;-51
2019/06/30 06:37:56;;;;;;;5.07;4.37;;;;;;;23.18;54.54;100477.09;;;;-51
2019/06/30 06:40:56;;;;;;;4.66;4.23;;;;;;;23.19;54.56;100481.74;;;;-51
2019/06/30 06:43:56;;;;;;;5.40;4.46;;;;;;;23.17;54.67;100482.62;;;;-52
2019/06/30 06:46:56;;;;;;;4.63;4.18;;;;;;;23.18;54.72;100479.45;;;;-51
2019/06/30 06:49:56;;;;;;;4.91;4.34;;;;;;;23.18;54.69;100482.89;;;;-51
2019/06/30 06:52:57;;;;;;;5.33;4.49;;;;;;;23.18;54.79;100480.53;;;;-51
2019/06/30 06:55:57;;;;;;;4.95;4.37;;;;;;;23.18;54.98;100481.98;;;;-51
2019/06/30 06:58:56;;;;;;;4.77;4.35;;;;;;;23.18;54.91;100478.95;;;;-51
2019/06/30 07:01:56;;;;;;;5.11;4.28;;;;;;;23.17;54.98;100479.86;;;;-51
2019/06/30 07:04:57;;;;;;;4.67;4.27;;;;;;;23.18;55.07;100476.48;;;;-51
2019/06/30 07:07:56;;;;;;;5.21;4.07;;;;;;;23.18;55.10;100483.33;;;;-52
2019/06/30 07:10:57;;;;;;;5.44;4.55;;;;;;;23.19;55.04;100486.12;;;;-52
2019/06/30 07:13:56;;;;;;;4.69;4.14;;;;;;;23.18;55.13;100485.92;;;;-52
2019/06/30 07:16:56;;;;;;;4.40;4.00;;;;;;;23.19;55.24;100488.98;;;;-52
2019/06/30 07:19:56;;;;;;;4.56;4.19;;;;;;;23.18;55.25;100486.88;;;;-51
2019/06/30 07:22:56;;;;;;;4.65;4.06;;;;;;;23.18;55.30;100483.66;;;;-51
2019/06/30 07:25:56;;;;;;;4.66;4.26;;;;;;;23.17;55.25;100482.22;;;;-52
2019/06/30 07:28:56;;;;;;;4.49;4.09;;;;;;;23.19;55.34;100486.23;;;;-51
2019/06/30 07:31:57;;;;;;;5.07;4.27;;;;;;;23.18;55.26;100487.55;;;;-51
2019/06/30 07:34:56;;;;;;;5.95;4.03;;;;;;;23.18;55.37;100486.36;;;;-51
2019/06/30 07:37:56;;;;;;;4.31;3.93;;;;;;;23.18;55.35;100489.90;;;;-52
2019/06/30 07:40:56;;;;;;;4.46;4.10;;;;;;;23.18;55.41;100491.25;;;;-48
2019/06/30 07:43:56;;;;;;;4.22;3.91;;;;;;;23.18;55.42;100488.45;;;;-49
2019/06/30 07:47:03;;;;;;;4.53;4.13;;;;;;;23.19;55.41;100493.03;;;;-48
2019/06/30 07:49:57;;;;;;;4.29;3.99;;;;;;;23.17;55.42;100488.63;;;;-48
2019/06/30 07:52:56;;;;;;;4.46;4.06;;;;;;;23.18;55.47;100489.06;;;;-48
2019/06/30 07:55:56;;;;;;;4.43;3.77;;;;;;;23.19;55.46;100489.42;;;;-48
2019/06/30 07:58:56;;;;;;;4.48;3.85;;;;;;;23.19;55.47;100488.31;;;;-48
2019/06/30 08:01:57;;;;;;;4.13;3.83;;;;;;;23.17;55.52;100487.01;;;;-52
2019/06/30 08:04:56;;;;;;;4.45;4.06;;;;;;;23.19;55.52;100487.91;;;;-54
2019/06/30 08:07:56;;;;;;;4.26;3.94;;;;;;;23.18;55.53;100492.42;;;;-53
2019/06/30 08:10:56;;;;;;;4.65;4.04;;;;;;;23.20;55.53;100489.28;;;;-52
2019/06/30 08:13:56;;;;;;;5.63;3.79;;;;;;;23.22;55.69;100484.97;;;;-53
2019/06/30 08:16:56;;;;;;;4.85;4.01;;;;;;;23.23;55.70;100484.83;;;;-54
2019/06/30 08:19:56;;;;;;;4.30;3.99;;;;;;;23.26;55.68;100487.78;;;;-53
2019/06/30 08:22:57;;;;;;;4.62;4.01;;;;;;;23.28;55.74;100481.50;;;;-51
2019/06/30 08:25:56;;;;;;;4.15;3.81;;;;;;;23.29;55.76;100483.83;;;;-59
2019/06/30 08:28:57;;;;;;;4.93;3.73;;;;;;;23.31;55.80;100489.68;;;;-59
2019/06/30 08:31:56;;;;;;;4.55;4.07;;;;;;;23.33;55.84;100493.17;;;;-59
2019/06/30 08:34:56;;;;;;;4.29;3.89;;;;;;;23.34;55.83;100497.34;;;;-51
2019/06/30 08:37:56;;;;;;;6.59;3.85;;;;;;;23.36;55.94;100496.06;;;;-50
2019/06/30 08:40:57;;;;;;;4.41;3.96;;;;;;;23.38;56.01;100489.62;;;;-51
2019/06/30 08:43:56;;;;;;;4.55;3.85;;;;;;;23.39;55.98;100487.15;;;;-51
2019/06/30 08:46:56;;;;;;;4.45;4.05;;;;;;;23.40;55.98;100488.59;;;;-52
2019/06/30 08:49:56;;;;;;;7.22;3.87;;;;;;;23.41;55.94;100482.28;;;;-51
2019/06/30 08:52:57;;;;;;;4.60;3.88;;;;;;;23.43;55.87;100485.20;;;;-52
2019/06/30 08:55:56;;;;;;;4.81;3.65;;;;;;;23.43;55.79;100488.75;;;;-51
2019/06/30 08:58:56;;;;;;;5.70;3.77;;;;;;;23.43;55.87;100483.28;;;;-52
2019/06/30 09:01:56;;;;;;;4.02;3.70;;;;;;;23.43;55.88;100479.14;;;;-52
2019/06/30 09:04:56;;;;;;;4.47;3.69;;;;;;;23.43;55.83;100475.94;;;;-48
2019/06/30 09:07:57;;;;;;;7.90;3.81;;;;;;;23.44;56.01;100473.38;;;;-51
2019/06/30 09:10:57;;;;;;;4.93;3.67;;;;;;;23.45;55.95;100470.77;;;;-53
2019/06/30 09:13:56;;;;;;;5.63;3.80;;;;;;;23.46;55.96;100470.29;;;;-52
2019/06/30 09:16:56;;;;;;;5.41;3.61;;;;;;;23.47;55.91;100474.80;;;;-54
2019/06/30 09:19:56;;;;;;;5.73;3.85;;;;;;;23.49;55.93;100468.19;;;;-58
2019/06/30 09:22:56;;;;;;;3.99;3.62;;;;;;;23.49;55.91;100464.98;;;;-49
2019/06/30 09:25:56;;;;;;;6.29;3.77;;;;;;;23.50;56.08;100470.57;;;;-51
2019/06/30 09:28:56;;;;;;;6.38;3.59;;;;;;;23.51;56.03;100470.50;;;;-50
2019/06/30 09:31:56;;;;;;;3.98;3.45;;;;;;;23.52;56.00;100464.83;;;;-56
2019/06/30 09:34:56;;;;;;;4.33;3.61;;;;;;;23.52;56.02;100461.36;;;;-51
2019/06/30 09:37:57;;;;;;;3.81;3.51;;;;;;;23.53;56.02;100465.43;;;;-49
2019/06/30 09:40:56;;;;;;;4.17;3.73;;;;;;;23.53;56.10;100459.30;;;;-47
2019/06/30 09:43:56;;;;;;;4.31;3.39;;;;;;;23.55;56.11;100461.78;;;;-51
2019/06/30 09:46:56;;;;;;;4.28;3.51;;;;;;;23.56;56.15;100459.61;;;;-53
2019/06/30 09:49:56;;;;;;;4.54;3.41;;;;;;;23.57;56.15;100459.88;;;;-50
2019/06/30 09:52:57;;;;;;;3.83;3.40;;;;;;;23.58;56.09;100453.94;;;;-50
2019/06/30 09:55:57;;;;;;;4.05;3.57;;;;;;;23.59;56.10;100461.38;;;;-50
2019/06/30 09:58:56;;;;;;;3.97;3.59;;;;;;;23.60;56.11;100461.14;;;;-50
2019/06/30 10:01:57;;;;;;;4.35;3.33;;;;;;;23.60;56.18;100455.41;;;;-53
2019/06/30 10:04:56;;;;;;;3.84;3.54;;;;;;;23.61;56.11;100457.03;;;;-52
2019/06/30 10:07:56;;;;;;;3.99;3.47;;;;;;;23.63;56.07;100454.55;;;;-56
2019/06/30 10:10:56;;;;;;;6.01;3.61;;;;;;;23.62;56.14;100447.41;;;;-53
2019/06/30 10:13:56;;;;;;;3.91;3.61;;;;;;;23.63;56.09;100450.80;;;;-60
2019/06/30 10:16:56;;;;;;;4.00;3.43;;;;;;;23.64;56.17;100452.66;;;;-54
2019/06/30 10:19:56;;;;;;;3.94;3.37;;;;;;;23.65;56.21;100441.96;;;;-52
2019/06/30 10:22:57;;;;;;;3.93;3.50;;;;;;;23.65;56.19;100441.22;;;;-51
2019/06/30 10:25:56;;;;;;;3.97;3.49;;;;;;;23.66;56.18;100439.72;;;;-52
2019/06/30 10:28:56;;;;;;;3.87;3.57;;;;;;;23.66;56.19;100431.46;;;;-54
2019/06/30 10:31:56;;;;;;;7.94;3.46;;;;;;;23.66;56.13;100426.74;;;;-53
2019/06/30 10:34:56;;;;;;;6.25;3.39;;;;;;;23.65;56.01;100428.41;;;;-53
2019/06/30 10:37:56;;;;;;;5.27;3.79;;;;;;;23.64;56.00;100425.51;;;;-53
2019/06/30 10:40:57;;;;;;;5.59;3.45;;;;;;;23.63;56.06;100431.28;;;;-53
2019/06/30 10:43:57;;;;;;;4.78;3.67;;;;;;;23.61;56.04;100428.66;;;;-53
2019/06/30 10:46:56;;;;;;;4.27;3.41;;;;;;;23.61;56.00;100434.73;;;;-52
2019/06/30 10:49:57;;;;;;;3.72;3.40;;;;;;;23.59;56.00;100427.93;;;;-53
2019/06/30 10:52:56;;;;;;;4.12;3.08;;;;;;;23.58;55.98;100420.12;;;;-52
2019/06/30 10:55:56;;;;;;;4.03;3.27;;;;;;;23.56;55.98;100419.32;;;;-53
2019/06/30 10:58:57;;;;;;;4.29;3.32;;;;;;;23.56;55.93;100420.34;;;;-53
2019/06/30 11:01:56;;;;;;;3.98;3.22;;;;;;;23.54;55.93;100417.92;;;;-53
2019/06/30 11:04:56;;;;;;;3.78;3.27;;;;;;;23.54;56.01;100425.67;;;;-61
2019/06/30 11:07:57;;;;;;;4.29;3.36;;;;;;;23.53;55.94;100433.13;;;;-60
2019/06/30 11:10:57;;;;;;;3.68;3.37;;;;;;;23.52;55.95;100434.39;;;;-61
2019/06/30 11:13:57;;;;;;;3.67;3.34;;;;;;;23.52;55.95;100431.86;;;;-60
2019/06/30 11:16:57;;;;;;;4.79;3.45;;;;;;;23.51;55.96;100424.17;;;;-63
2019/06/30 11:19:56;;;;;;;3.59;3.29;;;;;;;23.50;55.95;100421.02;;;;-61
2019/06/30 11:22:56;;;;;;;3.46;3.16;;;;;;;23.50;55.94;100422.27;;;;-60
2019/06/30 11:25:56;;;;;;;3.51;3.21;;;;;;;23.49;55.94;100420.75;;;;-60
2019/06/30 11:28:57;;;;;;;3.99;3.44;;;;;;;23.48;55.93;100421.62;;;;-61
2019/06/30 11:31:57;;;;;;;3.49;3.19;;;;;;;23.48;55.96;100421.97;;;;-61
2019/06/30 11:34:56;;;;;;;3.95;3.41;;;;;;;23.48;55.95;100419.38;;;;-60
2019/06/30 11:37:57;;;;;;;3.55;3.20;;;;;;;23.47;55.94;100407.04;;;;-61
2019/06/30 11:40:56;;;;;;;3.60;3.30;;;;;;;23.47;55.96;100410.58;;;;-61
2019/06/30 11:43:56;;;;;;;3.79;3.43;;;;;;;23.47;55.96;100413.34;;;;-53
2019/06/30 11:46:57;;;;;;;3.54;3.27;;;;;;;23.46;55.92;100405.39;;;;-53
2019/06/30 11:49:56;;;;;;;4.78;3.27;;;;;;;23.45;55.96;100407.16;;;;-60
2019/06/30 11:52:57;;;;;;;3.80;3.41;;;;;;;23.45;56.00;100411.27;;;;-63
2019/06/30 11:55:57;;;;;;;3.89;3.43;;;;;;;23.45;56.02;100415.14;;;;-61
2019/06/30 11:58:56;;;;;;;3.70;3.40;;;;;;;23.45;55.98;100416.16;;;;-63
2019/06/30 12:01:56;;;;;;;4.43;3.35;;;;;;;23.44;56.07;100409.31;;;;-51
2019/06/30 12:04:57;;;;;;;3.65;3.35;;;;;;;23.44;56.03;100412.08;;;;-52
2019/06/30 12:07:56;;;;;;;4.25;3.54;;;;;;;23.43;56.02;100404.98;;;;-53
2019/06/30 12:10:57;;;;;;;6.41;3.52;;;;;;;23.44;56.21;100402.64;;;;-51
2019/06/30 12:13:57;;;;;;;4.91;3.40;;;;;;;23.46;56.29;100406.08;;;;-53
2019/06/30 12:16:56;;;;;;;4.03;3.25;;;;;;;23.48;56.33;100397.02;;;;-53
2019/06/30 12:19:56;;;;;;;3.80;3.26;;;;;;;23.49;56.42;100401.20;;;;-49
2019/06/30 12:22:56;;;;;;;5.87;3.43;;;;;;;23.50;56.46;100396.73;;;;-46
2019/06/30 12:31:46;;;;;;;3.67;3.27;;;;;;;23.80;55.98;100389.03;;;;-42
2019/06/30 12:34:46;;;;;;;4.33;3.43;;;;;;;23.84;56.02;100380.50;;;;-43
2019/06/30 12:43:02;;;;;;;3.91;3.32;;;;;;;23.96;55.92;100377.19;;;;-44
2019/06/30 12:51:18;;;;;;;9.25;3.58;;;;;;;24.02;55.89;100384.09;;;;-44
2019/06/30 12:54:18;;;;;;;4.71;3.69;;;;;;;24.06;55.96;100376.33;;;;-43
2019/06/30 13:01:59;;;;;;;5.09;3.36;;;;;;;24.13;55.63;100361.82;;;;-43
2019/06/30 13:04:59;;;;;;;4.99;3.18;;;;;;;24.14;55.55;100361.23;;;;-50
2019/06/30 13:07:59;;;;;;;4.41;3.21;;;;;;;24.16;55.38;100360.63;;;;-45
2019/06/30 13:10:59;;;;;;;9.09;3.64;;;;;;;24.18;55.74;100354.48;;;;-42
2019/06/30 13:13:59;;;;;;;5.18;3.39;;;;;;;24.19;55.80;100360.41;;;;-41
2019/06/30 13:16:58;;;;;;;6.89;3.72;;;;;;;24.22;55.44;100371.95;;;;-49
2019/06/30 13:19:58;;;;;;;6.26;3.49;;;;;;;24.22;55.34;100366.48;;;;-49
2019/06/30 13:22:58;;;;;;;6.14;3.55;;;;;;;24.24;55.42;100367.71;;;;-49
2019/06/30 13:25:59;;;;;;;6.77;3.63;;;;;;;24.25;55.50;100371.21;;;;-48
2019/06/30 13:28:59;;;;;;;10.20;3.62;;;;;;;24.22;55.63;100370.30;;;;-51
2019/06/30 13:31:59;;;;;;;5.87;3.50;;;;;;;24.19;55.59;100369.19;;;;-49
2019/06/30 13:34:58;;;;;;;11.59;3.67;;;;;;;24.16;55.49;100366.11;;;;-48
2019/06/30 13:37:59;;;;;;;6.86;3.80;;;;;;;24.15;55.52;100360.44;;;;-49
2019/06/30 13:40:58;;;;;;;7.33;3.41;;;;;;;24.12;55.45;100359.70;;;;-43
2019/06/30 13:43:58;;;;;;;6.14;3.82;;;;;;;24.12;55.40;100357.06;;;;-43
2019/06/30 13:46:59;;;;;;;8.61;3.37;;;;;;;24.17;55.47;100352.27;;;;-42
2019/06/30 13:49:59;;;;;;;8.43;3.30;;;;;;;24.22;55.42;100354.74;;;;-43
2019/06/30 13:52:58;;;;;;;6.98;3.59;;;;;;;24.23;55.52;100348.11;;;;-46
2019/06/30 13:56:00;;;;;;;5.94;3.61;;;;;;;24.24;55.61;100345.87;;;;-43
2019/06/30 13:58:58;;;;;;;4.89;3.28;;;;;;;24.26;55.39;100343.02;;;;-43
2019/06/30 14:01:58;;;;;;;8.04;3.61;;;;;;;24.25;55.45;100338.98;;;;-42
2019/06/30 14:04:59;;;;;;;4.99;3.17;;;;;;;24.26;55.47;100336.03;;;;-42
2019/06/30 14:07:59;;;;;;;6.60;3.59;;;;;;;24.27;55.66;100332.58;;;;-43
2019/06/30 14:10:59;;;;;;;5.50;3.32;;;;;;;24.29;55.55;100338.46;;;;-43
2019/06/30 14:13:58;;;;;;;7.11;3.38;;;;;;;24.24;55.60;100332.70;;;;-44
2019/06/30 14:16:59;;;;;;;8.67;3.67;;;;;;;24.22;55.67;100333.07;;;;-44
2019/06/30 14:19:58;;;;;;;5.23;3.40;;;;;;;24.20;55.53;100326.68;;;;-44
2019/06/30 14:22:59;;;;;;;5.51;3.60;;;;;;;24.25;55.40;100318.11;;;;-43
2019/06/30 14:25:59;;;;;;;4.35;3.59;;;;;;;24.31;55.37;100322.55;;;;-43
2019/06/30 14:28:59;;;;;;;8.73;4.32;;;;;;;24.31;55.33;100319.27;;;;-44
2019/06/30 14:31:58;;;;;;;6.03;3.54;;;;;;;24.33;55.40;100313.98;;;;-43
2019/06/30 14:34:58;;;;;;;5.61;3.71;;;;;;;24.33;55.35;100306.55;;;;-42
2019/06/30 14:37:58;;;;;;;7.56;3.85;;;;;;;24.34;55.24;100305.39;;;;-43
2019/06/30 14:40:59;;;;;;;9.10;4.31;;;;;;;24.35;55.18;100304.74;;;;-43
2019/06/30 14:43:58;;;;;;;5.91;3.81;;;;;;;24.36;55.31;100305.70;;;;-44
2019/06/30 14:46:58;;;;;;;4.78;3.73;;;;;;;24.39;55.09;100301.69;;;;-43
2019/06/30 14:49:58;;;;;;;6.80;4.06;;;;;;;24.41;55.26;100297.01;;;;-44
2019/06/30 14:52:58;;;;;;;6.11;4.05;;;;;;;24.42;55.22;100288.69;;;;-49
2019/06/30 14:55:58;;;;;;;7.41;3.95;;;;;;;24.43;55.07;100290.42;;;;-48
2019/06/30 14:58:58;;;;;;;7.81;4.04;;;;;;;24.45;54.99;100297.80;;;;-47
2019/06/30 15:01:59;;;;;;;5.01;3.83;;;;;;;24.46;55.10;100297.31;;;;-49
2019/06/30 15:04:59;;;;;;;7.45;4.09;;;;;;;24.48;54.99;100290.70;;;;-49
2019/06/30 15:07:59;;;;;;;6.62;3.89;;;;;;;24.48;55.07;100293.14;;;;-49
2019/06/30 15:10:58;;;;;;;4.90;3.93;;;;;;;24.47;55.03;100287.91;;;;-48
2019/06/30 15:13:58;;;;;;;6.36;4.09;;;;;;;24.48;54.96;100285.47;;;;-50
2019/06/30 15:16:58;;;;;;;6.04;3.68;;;;;;;24.51;55.22;100280.80;;;;-53
2019/06/30 15:19:59;;;;;;;6.52;4.06;;;;;;;24.59;55.00;100283.41;;;;-58
2019/06/30 15:22:59;;;;;;;11.95;3.94;;;;;;;24.62;55.14;100273.27;;;;-50
2019/06/30 15:25:59;;;;;;;8.69;3.81;;;;;;;24.63;55.05;100276.41;;;;-50
2019/06/30 15:28:58;;;;;;;8.63;3.82;;;;;;;24.60;55.31;100278.80;;;;-50
2019/06/30 15:31:58;;;;;;;7.38;3.86;;;;;;;24.57;55.31;100274.18;;;;-51
2019/06/30 15:34:58;;;;;;;6.72;3.89;;;;;;;24.53;55.70;100273.08;;;;-49
2019/06/30 15:37:58;;;;;;;8.71;4.01;;;;;;;24.53;55.58;100271.80;;;;-46
2019/06/30 15:40:58;;;;;;;7.03;3.63;;;;;;;24.57;55.29;100270.47;;;;-46
2019/06/30 15:43:59;;;;;;;10.56;4.07;;;;;;;24.58;55.45;100268.86;;;;-40
2019/06/30 15:46:59;;;;;;;8.02;3.91;;;;;;;24.59;55.46;100256.72;;;;-41
2019/06/30 15:49:58;;;;;;;7.05;3.76;;;;;;;24.62;55.37;100257.30;;;;-42
2019/06/30 15:52:58;;;;;;;5.58;3.82;;;;;;;24.63;55.36;100246.91;;;;-41
2019/06/30 15:55:58;;;;;;;4.67;3.66;;;;;;;24.65;55.25;100252.63;;;;-46
2019/06/30 15:58:58;;;;;;;6.32;3.75;;;;;;;24.64;55.25;100249.05;;;;-47
2019/06/30 16:01:58;;;;;;;6.25;3.79;;;;;;;24.65;55.29;100245.62;;;;-49
2019/06/30 16:04:59;;;;;;;5.35;3.65;;;;;;;24.67;55.09;100243.20;;;;-51
2019/06/30 16:07:58;;;;;;;6.48;3.73;;;;;;;24.68;55.09;100248.97;;;;-48
2019/06/30 16:10:58;;;;;;;5.46;3.93;;;;;;;24.69;55.10;100248.55;;;;-48
2019/06/30 16:13:58;;;;;;;7.01;3.70;;;;;;;24.69;55.14;100241.73;;;;-48
2019/06/30 16:16:58;;;;;;;5.47;3.75;;;;;;;24.69;55.13;100243.25;;;;-50
2019/06/30 16:19:58;;;;;;;6.37;3.71;;;;;;;24.70;55.15;100238.78;;;;-49
2019/06/30 16:22:59;;;;;;;4.70;3.75;;;;;;;24.72;55.14;100237.88;;;;-49
2019/06/30 16:25:59;;;;;;;4.67;3.68;;;;;;;24.73;55.07;100239.52;;;;-42
2019/06/30 16:28:59;;;;;;;6.34;3.70;;;;;;;24.72;55.15;100240.70;;;;-44
2019/06/30 16:31:58;;;;;;;4.47;3.56;;;;;;;24.73;55.11;100234.64;;;;-50
2019/06/30 16:34:58;;;;;;;6.20;3.75;;;;;;;24.75;55.02;100234.48;;;;-49
2019/06/30 16:37:58;;;;;;;6.79;3.92;;;;;;;24.75;55.05;100237.59;;;;-49
2019/06/30 16:40:58;;;;;;;4.59;3.58;;;;;;;24.74;55.12;100238.11;;;;-43
2019/06/30 16:43:58;;;;;;;4.86;3.45;;;;;;;24.75;55.11;100234.48;;;;-42
2019/06/30 16:46:58;;;;;;;5.01;3.77;;;;;;;24.76;55.09;100226.91;;;;-43
2019/06/30 16:49:59;;;;;;;5.24;3.65;;;;;;;24.76;55.07;100225.28;;;;-42
2019/06/30 16:52:58;;;;;;;4.53;3.81;;;;;;;24.76;55.13;100230.86;;;;-42
2019/06/30 16:55:58;;;;;;;5.32;3.50;;;;;;;24.77;55.08;100228.54;;;;-43
2019/06/30 16:58:59;;;;;;;5.47;3.55;;;;;;;24.78;55.12;100225.52;;;;-42
2019/06/30 17:01:59;;;;;;;4.98;3.57;;;;;;;24.79;55.12;100232.70;;;;-47
2019/06/30 17:04:58;;;;;;;5.01;3.63;;;;;;;24.79;55.06;100232.19;;;;-49